sensor_id;sensor_type;location;lat;lon;timestamp;pressure;altitude;pressure_sealevel;temperature;humidity
3812;BME280;1921;49.368;11.068;2023-08-08T00:01:04;97712.25;;;12.15;100.00
3812;BME280;1921;49.368;11.068;2023-08-08T00:03:30;97636.25;;;11.66;100.00
3812;BME280;1921;49.368;11.068;2023-08-08T00:05:55;97751.31;;;12.38;100.00
3812;BME280;1921;49.368;11.068;2023-08-08T00:08:21;97743.00;;;12.49;100.00
3812;BME280;1921;49.368;11.068;2023-08-08T00:10:47;97705.34;;;12.29;100.00
3812;BME280;1921;49.368;11.068;2023-08-08T00:13:13;97757.56;;;12.58;100.00
3812;BME280;1921;49.368;11.068;2023-08-08T00:15:38;97695.69;;;12.29;100.00
3812;BME280;1921;49.368;11.068;2023-08-08T00:18:04;97736.34;;;12.68;100.00
3812;BME280;1921;49.368;11.068;2023-08-08T00:20:30;97733.13;;;12.73;100.00
3812;BME280;1921;49.368;11.068;2023-08-08T00:22:56;97721.84;;;12.72;100.00
3812;BME280;1921;49.368;11.068;2023-08-08T00:25:22;97718.88;;;12.75;99.64
3812;BME280;1921;49.368;11.068;2023-08-08T00:27:49;97698.31;;;12.72;99.11
3812;BME280;1921;49.368;11.068;2023-08-08T00:30:15;97709.88;;;12.84;98.79
3812;BME280;1921;49.368;11.068;2023-08-08T00:32:41;97722.66;;;12.94;98.58
3812;BME280;1921;49.368;11.068;2023-08-08T00:35:07;97711.56;;;12.92;97.94
3812;BME280;1921;49.368;11.068;2023-08-08T00:37:33;97739.06;;;13.09;97.54
3812;BME280;1921;49.368;11.068;2023-08-08T00:39:59;97742.03;;;13.21;96.81
3812;BME280;1921;49.368;11.068;2023-08-08T00:42:25;97701.56;;;13.02;96.25
3812;BME280;1921;49.368;11.068;2023-08-08T00:44:51;97689.88;;;12.98;95.91
3812;BME280;1921;49.368;11.068;2023-08-08T00:47:16;97679.25;;;13.06;95.07
3812;BME280;1921;49.368;11.068;2023-08-08T00:49:42;97726.41;;;13.34;94.31
3812;BME280;1921;49.368;11.068;2023-08-08T00:52:12;97715.69;;;13.29;94.52
3812;BME280;1921;49.368;11.068;2023-08-08T00:54:39;97691.44;;;13.20;93.33
3812;BME280;1921;49.368;11.068;2023-08-08T00:57:05;97703.38;;;13.23;92.39
3812;BME280;1921;49.368;11.068;2023-08-08T00:59:31;97672.41;;;13.05;92.66
3812;BME280;1921;49.368;11.068;2023-08-08T01:01:58;97719.16;;;13.36;92.18
3812;BME280;1921;49.368;11.068;2023-08-08T01:04:26;97699.78;;;13.31;91.38
3812;BME280;1921;49.368;11.068;2023-08-08T01:07:43;97711.16;;;13.44;90.94
3812;BME280;1921;49.368;11.068;2023-08-08T01:10:18;97705.09;;;13.44;90.92
3812;BME280;1921;49.368;11.068;2023-08-08T01:12:55;97728.59;;;13.65;90.13
3812;BME280;1921;49.368;11.068;2023-08-08T01:15:22;97704.81;;;13.60;89.73
3812;BME280;1921;49.368;11.068;2023-08-08T01:17:49;97707.06;;;13.70;88.93
3812;BME280;1921;49.368;11.068;2023-08-08T01:20:16;97686.47;;;13.60;88.95
3812;BME280;1921;49.368;11.068;2023-08-08T01:22:55;97722.81;;;13.77;87.99
3812;BME280;1921;49.368;11.068;2023-08-08T01:25:22;97697.16;;;13.72;88.05
3812;BME280;1921;49.368;11.068;2023-08-08T01:27:48;97729.38;;;14.00;87.38
3812;BME280;1921;49.368;11.068;2023-08-08T01:30:14;97724.31;;;13.99;87.32
3812;BME280;1921;49.368;11.068;2023-08-08T01:32:40;97689.38;;;13.85;87.07
3812;BME280;1921;49.368;11.068;2023-08-08T01:35:07;97706.19;;;13.97;86.22
3812;BME280;1921;49.368;11.068;2023-08-08T01:40:07;97681.56;;;13.92;85.85
3812;BME280;1921;49.368;11.068;2023-08-08T01:42:35;97716.88;;;14.09;85.74
3812;BME280;1921;49.368;11.068;2023-08-08T01:45:00;97644.34;;;13.68;85.77
3812;BME280;1921;49.368;11.068;2023-08-08T01:47:26;97666.78;;;13.84;85.46
3812;BME280;1921;49.368;11.068;2023-08-08T01:49:52;97707.34;;;13.95;86.26
3812;BME280;1921;49.368;11.068;2023-08-08T01:52:18;97679.47;;;13.81;85.39
3812;BME280;1921;49.368;11.068;2023-08-08T01:54:44;97650.59;;;13.61;85.39
3812;BME280;1921;49.368;11.068;2023-08-08T01:57:09;97688.34;;;13.73;85.39
3812;BME280;1921;49.368;11.068;2023-08-08T01:59:35;97700.47;;;13.81;85.36
3812;BME280;1921;49.368;11.068;2023-08-08T02:02:01;97727.09;;;13.91;85.12
3812;BME280;1921;49.368;11.068;2023-08-08T02:04:26;97700.59;;;13.72;84.96
3812;BME280;1921;49.368;11.068;2023-08-08T02:06:52;97687.84;;;13.56;85.28
3812;BME280;1921;49.368;11.068;2023-08-08T02:09:18;97714.53;;;13.73;85.30
3812;BME280;1921;49.368;11.068;2023-08-08T02:11:44;97676.94;;;13.53;85.12
3812;BME280;1921;49.368;11.068;2023-08-08T02:14:10;97694.69;;;13.57;85.20
3812;BME280;1921;49.368;11.068;2023-08-08T02:16:35;97719.81;;;13.80;84.39
3812;BME280;1921;49.368;11.068;2023-08-08T02:19:01;97674.13;;;13.54;84.57
3812;BME280;1921;49.368;11.068;2023-08-08T02:21:27;97671.69;;;13.53;84.46
3812;BME280;1921;49.368;11.068;2023-08-08T02:23:53;97663.66;;;13.54;83.86
3812;BME280;1921;49.368;11.068;2023-08-08T02:26:18;97643.84;;;13.45;84.26
3812;BME280;1921;49.368;11.068;2023-08-08T02:28:44;97707.31;;;13.82;84.34
3812;BME280;1921;49.368;11.068;2023-08-08T02:31:10;97719.88;;;13.93;84.63
3812;BME280;1921;49.368;11.068;2023-08-08T02:33:36;97668.97;;;13.74;84.32
3812;BME280;1921;49.368;11.068;2023-08-08T02:36:01;97717.66;;;14.03;84.55
3812;BME280;1921;49.368;11.068;2023-08-08T02:38:27;97670.56;;;13.68;84.75
3812;BME280;1921;49.368;11.068;2023-08-08T02:40:53;97655.00;;;13.60;84.71
3812;BME280;1921;49.368;11.068;2023-08-08T02:43:20;97716.28;;;14.07;84.59
3812;BME280;1921;49.368;11.068;2023-08-08T02:45:45;97682.94;;;13.88;84.93
3812;BME280;1921;49.368;11.068;2023-08-08T02:48:11;97668.81;;;13.89;84.86
3812;BME280;1921;49.368;11.068;2023-08-08T02:50:37;97707.19;;;14.10;85.03
3812;BME280;1921;49.368;11.068;2023-08-08T02:53:03;97691.28;;;14.11;84.79
3812;BME280;1921;49.368;11.068;2023-08-08T02:55:29;97673.69;;;13.98;84.65
3812;BME280;1921;49.368;11.068;2023-08-08T02:57:55;97703.41;;;14.19;84.65
3812;BME280;1921;49.368;11.068;2023-08-08T03:00:20;97669.25;;;13.99;84.75
3812;BME280;1921;49.368;11.068;2023-08-08T03:02:46;97712.50;;;14.23;85.06
3812;BME280;1921;49.368;11.068;2023-08-08T03:05:12;97708.06;;;14.23;84.13
3812;BME280;1921;49.368;11.068;2023-08-08T03:07:38;97719.16;;;14.19;84.63
3812;BME280;1921;49.368;11.068;2023-08-08T03:10:04;97730.25;;;14.21;86.94
3812;BME280;1921;49.368;11.068;2023-08-08T03:12:31;97747.16;;;14.12;90.03
3812;BME280;1921;49.368;11.068;2023-08-08T03:14:57;97683.06;;;13.66;91.41
3812;BME280;1921;49.368;11.068;2023-08-08T03:17:23;97674.13;;;13.54;91.82
3812;BME280;1921;49.368;11.068;2023-08-08T03:19:48;97727.75;;;13.58;93.60
3812;BME280;1921;49.368;11.068;2023-08-08T03:22:14;97724.63;;;13.41;94.78
3812;BME280;1921;49.368;11.068;2023-08-08T03:24:40;97726.41;;;13.34;96.17
3812;BME280;1921;49.368;11.068;2023-08-08T03:27:06;97679.41;;;12.98;97.11
3812;BME280;1921;49.368;11.068;2023-08-08T03:29:31;97718.88;;;13.25;97.78
3812;BME280;1921;49.368;11.068;2023-08-08T03:31:57;97659.75;;;12.81;99.20
3812;BME280;1921;49.368;11.068;2023-08-08T03:34:23;97709.88;;;13.06;99.81
3812;BME280;1921;49.368;11.068;2023-08-08T03:36:49;97672.78;;;12.74;100.00
3812;BME280;1921;49.368;11.068;2023-08-08T03:39:14;97678.19;;;12.73;100.00
3812;BME280;1921;49.368;11.068;2023-08-08T03:41:40;97725.47;;;12.92;100.00
3812;BME280;1921;49.368;11.068;2023-08-08T03:44:06;97681.50;;;12.60;100.00
3812;BME280;1921;49.368;11.068;2023-08-08T03:46:32;97683.03;;;12.54;100.00
3812;BME280;1921;49.368;11.068;2023-08-08T03:48:59;97713.69;;;12.60;100.00
3812;BME280;1921;49.368;11.068;2023-08-08T03:51:25;97694.03;;;12.43;100.00
3812;BME280;1921;49.368;11.068;2023-08-08T03:53:50;97718.25;;;12.52;100.00
3812;BME280;1921;49.368;11.068;2023-08-08T03:56:16;97688.16;;;12.20;100.00
3812;BME280;1921;49.368;11.068;2023-08-08T03:58:42;97703.31;;;12.24;100.00
3812;BME280;1921;49.368;11.068;2023-08-08T04:01:07;97722.03;;;12.28;100.00
3812;BME280;1921;49.368;11.068;2023-08-08T04:03:33;97701.91;;;12.07;100.00
3812;BME280;1921;49.368;11.068;2023-08-08T04:05:59;97735.38;;;12.33;100.00
3812;BME280;1921;49.368;11.068;2023-08-08T04:08:24;97678.50;;;11.99;100.00
3812;BME280;1921;49.368;11.068;2023-08-08T04:10:50;97731.41;;;12.22;100.00
3812;BME280;1921;49.368;11.068;2023-08-08T04:13:16;97679.22;;;11.93;100.00
3812;BME280;1921;49.368;11.068;2023-08-08T04:15:42;97696.78;;;11.99;100.00
3812;BME280;1921;49.368;11.068;2023-08-08T04:18:07;97670.94;;;11.74;100.00
3812;BME280;1921;49.368;11.068;2023-08-08T04:20:34;97685.34;;;11.85;100.00
3812;BME280;1921;49.368;11.068;2023-08-08T04:23:00;97672.09;;;11.72;100.00
3812;BME280;1921;49.368;11.068;2023-08-08T04:25:26;97727.97;;;12.00;100.00
3812;BME280;1921;49.368;11.068;2023-08-08T04:27:53;97699.22;;;11.85;100.00
3812;BME280;1921;49.368;11.068;2023-08-08T04:30:19;97776.72;;;12.08;100.00
3812;BME280;1921;49.368;11.068;2023-08-08T04:32:45;97570.34;;;10.98;100.00
3812;BME280;1921;49.368;11.068;2023-08-08T04:35:11;97687.34;;;11.68;100.00
3812;BME280;1921;49.368;11.068;2023-08-08T04:37:36;97702.03;;;11.84;100.00
3812;BME280;1921;49.368;11.068;2023-08-08T04:40:02;97659.50;;;11.60;100.00
3812;BME280;1921;49.368;11.068;2023-08-08T04:42:29;97572.59;;;11.01;100.00
3812;BME280;1921;49.368;11.068;2023-08-08T04:44:55;97670.06;;;11.82;100.00
3812;BME280;1921;49.368;11.068;2023-08-08T04:47:21;97688.31;;;11.97;100.00
3812;BME280;1921;49.368;11.068;2023-08-08T04:49:47;97736.16;;;12.33;100.00
3812;BME280;1921;49.368;11.068;2023-08-08T04:52:13;97655.59;;;11.86;100.00
3812;BME280;1921;49.368;11.068;2023-08-08T04:54:38;97686.72;;;12.17;100.00
3812;BME280;1921;49.368;11.068;2023-08-08T04:57:06;97652.94;;;12.37;100.00
3812;BME280;1921;49.368;11.068;2023-08-08T04:59:32;97705.19;;;13.01;100.00
3812;BME280;1921;49.368;11.068;2023-08-08T05:01:58;97738.91;;;13.39;100.00
3812;BME280;1921;49.368;11.068;2023-08-08T05:04:23;97746.97;;;13.37;100.00
3812;BME280;1921;49.368;11.068;2023-08-08T05:06:49;97659.03;;;12.93;100.00
3812;BME280;1921;49.368;11.068;2023-08-08T05:09:15;97712.47;;;13.62;100.00
3812;BME280;1921;49.368;11.068;2023-08-08T05:11:41;97638.75;;;13.85;100.00
3812;BME280;1921;49.368;11.068;2023-08-08T05:14:07;97670.19;;;14.59;100.00
3812;BME280;1921;49.368;11.068;2023-08-08T05:16:32;97674.44;;;15.13;100.00
3812;BME280;1921;49.368;11.068;2023-08-08T05:18:58;97687.69;;;15.45;96.48
3812;BME280;1921;49.368;11.068;2023-08-08T05:21:24;97713.50;;;15.81;92.59
3812;BME280;1921;49.368;11.068;2023-08-08T05:23:50;97659.47;;;15.92;91.94
3812;BME280;1921;49.368;11.068;2023-08-08T05:26:15;97686.09;;;16.47;88.37
3812;BME280;1921;49.368;11.068;2023-08-08T05:28:41;97719.81;;;17.13;88.28
3812;BME280;1921;49.368;11.068;2023-08-08T05:31:07;97679.75;;;17.29;84.09
3812;BME280;1921;49.368;11.068;2023-08-08T05:33:33;97728.88;;;17.85;83.87
3812;BME280;1921;49.368;11.068;2023-08-08T05:35:59;97705.50;;;18.19;82.13
3812;BME280;1921;49.368;11.068;2023-08-08T05:38:25;97718.94;;;18.77;78.96
3812;BME280;1921;49.368;11.068;2023-08-08T05:40:50;97658.50;;;18.81;78.62
3812;BME280;1921;49.368;11.068;2023-08-08T05:43:17;97711.53;;;19.56;77.11
3812;BME280;1921;49.368;11.068;2023-08-08T05:45:47;97669.53;;;19.72;72.75
3812;BME280;1921;49.368;11.068;2023-08-08T05:48:12;97655.03;;;20.03;73.44
3812;BME280;1921;49.368;11.068;2023-08-08T05:50:39;97663.59;;;20.50;72.94
3812;BME280;1921;49.368;11.068;2023-08-08T05:53:06;97643.84;;;20.75;69.08
3812;BME280;1921;49.368;11.068;2023-08-08T05:55:32;97634.69;;;20.65;67.51
3812;BME280;1921;49.368;11.068;2023-08-08T05:57:58;97717.22;;;21.58;63.14
3812;BME280;1921;49.368;11.068;2023-08-08T06:00:24;97681.94;;;21.58;60.39
3812;BME280;1921;49.368;11.068;2023-08-08T06:02:49;97640.19;;;21.53;60.96
3812;BME280;1921;49.368;11.068;2023-08-08T06:05:17;97558.63;;;21.05;61.97
3812;BME280;1921;49.368;11.068;2023-08-08T06:07:43;97667.06;;;21.57;61.14
3812;BME280;1921;49.368;11.068;2023-08-08T06:10:09;97663.34;;;21.19;60.70
3812;BME280;1921;49.368;11.068;2023-08-08T06:12:35;97582.47;;;20.49;56.86
3812;BME280;1921;49.368;11.068;2023-08-08T06:15:01;97648.28;;;20.40;57.73
3812;BME280;1921;49.368;11.068;2023-08-08T06:17:27;97697.06;;;20.28;61.16
3812;BME280;1921;49.368;11.068;2023-08-08T06:19:53;97708.75;;;19.51;63.58
3812;BME280;1921;49.368;11.068;2023-08-08T06:22:19;97668.41;;;18.97;64.97
3812;BME280;1921;49.368;11.068;2023-08-08T06:24:45;97614.91;;;18.07;65.01
3812;BME280;1921;49.368;11.068;2023-08-08T06:27:12;97667.59;;;18.01;68.05
3812;BME280;1921;49.368;11.068;2023-08-08T06:29:38;97655.00;;;17.30;71.33
3812;BME280;1921;49.368;11.068;2023-08-08T06:32:04;97636.44;;;17.00;72.46
3812;BME280;1921;49.368;11.068;2023-08-08T06:34:33;97724.78;;;17.28;74.78
3812;BME280;1921;49.368;11.068;2023-08-08T06:36:58;97690.66;;;17.33;75.69
3812;BME280;1921;49.368;11.068;2023-08-08T06:39:24;97726.63;;;17.89;77.83
3812;BME280;1921;49.368;11.068;2023-08-08T06:41:50;97674.78;;;18.24;74.00
3812;BME280;1921;49.368;11.068;2023-08-08T06:44:16;97691.16;;;18.87;69.42
3812;BME280;1921;49.368;11.068;2023-08-08T06:46:42;97680.47;;;19.17;67.32
3812;BME280;1921;49.368;11.068;2023-08-08T06:49:07;97677.16;;;19.45;67.88
3812;BME280;1921;49.368;11.068;2023-08-08T06:51:34;97717.59;;;19.69;68.38
3812;BME280;1921;49.368;11.068;2023-08-08T06:54:00;97678.84;;;19.62;66.64
3812;BME280;1921;49.368;11.068;2023-08-08T06:56:26;97658.41;;;19.58;64.78
3812;BME280;1921;49.368;11.068;2023-08-08T06:58:53;97649.28;;;19.54;63.92
3812;BME280;1921;49.368;11.068;2023-08-08T07:01:20;97718.84;;;19.89;64.54
3812;BME280;1921;49.368;11.068;2023-08-08T07:03:46;97677.91;;;19.69;65.77
3812;BME280;1921;49.368;11.068;2023-08-08T07:06:12;97712.66;;;19.84;63.95
3812;BME280;1921;49.368;11.068;2023-08-08T07:08:38;97697.72;;;19.66;65.24
3812;BME280;1921;49.368;11.068;2023-08-08T07:11:07;97674.69;;;19.55;64.82
3812;BME280;1921;49.368;11.068;2023-08-08T07:13:32;97677.34;;;19.67;66.08
3812;BME280;1921;49.368;11.068;2023-08-08T07:15:58;97692.50;;;19.83;64.95
3812;BME280;1921;49.368;11.068;2023-08-08T07:18:24;97675.13;;;20.15;65.13
3812;BME280;1921;49.368;11.068;2023-08-08T07:20:50;97677.88;;;20.49;61.59
3812;BME280;1921;49.368;11.068;2023-08-08T07:23:16;97675.81;;;20.51;62.52
3812;BME280;1921;49.368;11.068;2023-08-08T07:25:45;97670.19;;;20.64;59.15
3812;BME280;1921;49.368;11.068;2023-08-08T07:28:12;97705.22;;;20.83;58.74
3812;BME280;1921;49.368;11.068;2023-08-08T07:30:40;97679.19;;;20.97;59.04
3812;BME280;1921;49.368;11.068;2023-08-08T07:33:07;97687.59;;;21.11;59.92
3812;BME280;1921;49.368;11.068;2023-08-08T07:35:35;97658.09;;;21.24;58.48
3812;BME280;1921;49.368;11.068;2023-08-08T07:38:01;97655.31;;;21.31;57.95
3812;BME280;1921;49.368;11.068;2023-08-08T07:40:27;97598.38;;;21.38;56.50
3812;BME280;1921;49.368;11.068;2023-08-08T07:42:53;97659.94;;;22.06;54.02
3812;BME280;1921;49.368;11.068;2023-08-08T07:45:19;97655.97;;;22.30;52.29
3812;BME280;1921;49.368;11.068;2023-08-08T07:47:45;97634.59;;;22.20;55.93
3812;BME280;1921;49.368;11.068;2023-08-08T07:50:11;97627.75;;;22.29;51.99
3812;BME280;1921;49.368;11.068;2023-08-08T07:52:37;97625.09;;;22.56;52.90
3812;BME280;1921;49.368;11.068;2023-08-08T07:55:04;97652.91;;;23.13;50.84
3812;BME280;1921;49.368;11.068;2023-08-08T07:57:32;97613.28;;;23.12;48.90
3812;BME280;1921;49.368;11.068;2023-08-08T08:00:01;97622.06;;;23.12;50.06
3812;BME280;1921;49.368;11.068;2023-08-08T08:02:32;97652.56;;;23.42;50.66
3812;BME280;1921;49.368;11.068;2023-08-08T08:04:58;97643.59;;;23.16;49.59
3812;BME280;1921;49.368;11.068;2023-08-08T08:07:24;97645.38;;;23.00;49.89
3812;BME280;1921;49.368;11.068;2023-08-08T08:09:50;97664.06;;;23.10;50.34
3812;BME280;1921;49.368;11.068;2023-08-08T08:12:15;97672.47;;;23.39;51.19
3812;BME280;1921;49.368;11.068;2023-08-08T08:14:41;97631.19;;;23.31;51.04
3812;BME280;1921;49.368;11.068;2023-08-08T08:17:07;97640.19;;;23.73;49.24
3812;BME280;1921;49.368;11.068;2023-08-08T08:19:33;97649.63;;;24.06;47.44
3812;BME280;1921;49.368;11.068;2023-08-08T08:21:58;97609.34;;;23.97;45.75
3812;BME280;1921;49.368;11.068;2023-08-08T08:24:24;97647.63;;;23.71;47.20
3812;BME280;1921;49.368;11.068;2023-08-08T08:26:50;97671.75;;;23.54;47.44
3812;BME280;1921;49.368;11.068;2023-08-08T08:29:16;97634.66;;;23.32;48.67
3812;BME280;1921;49.368;11.068;2023-08-08T08:31:41;97602.00;;;22.94;47.77
3812;BME280;1921;49.368;11.068;2023-08-08T08:34:07;97622.69;;;22.87;49.74
3812;BME280;1921;49.368;11.068;2023-08-08T08:36:33;97623.66;;;22.44;50.74
3812;BME280;1921;49.368;11.068;2023-08-08T08:38:58;97635.78;;;22.35;48.64
3812;BME280;1921;49.368;11.068;2023-08-08T08:41:27;97639.00;;;22.37;49.12
3812;BME280;1921;49.368;11.068;2023-08-08T08:43:54;97653.13;;;22.15;48.03
3812;BME280;1921;49.368;11.068;2023-08-08T08:46:21;97634.13;;;22.28;49.82
3812;BME280;1921;49.368;11.068;2023-08-08T08:48:51;97646.06;;;23.27;46.91
3812;BME280;1921;49.368;11.068;2023-08-08T08:51:20;97626.13;;;23.93;45.14
3812;BME280;1921;49.368;11.068;2023-08-08T08:53:46;97652.66;;;24.50;43.78
3812;BME280;1921;49.368;11.068;2023-08-08T08:56:15;97623.28;;;24.30;42.92
3812;BME280;1921;49.368;11.068;2023-08-08T08:58:42;97621.72;;;24.54;43.11
3812;BME280;1921;49.368;11.068;2023-08-08T09:01:09;97567.84;;;24.37;42.41
3812;BME280;1921;49.368;11.068;2023-08-08T09:03:36;97608.91;;;24.46;41.56
3812;BME280;1921;49.368;11.068;2023-08-08T09:06:04;97659.84;;;24.50;41.89
3812;BME280;1921;49.368;11.068;2023-08-08T09:08:30;97634.16;;;24.13;41.43
3812;BME280;1921;49.368;11.068;2023-08-08T09:10:56;97632.59;;;24.32;42.44
3812;BME280;1921;49.368;11.068;2023-08-08T09:13:23;97623.28;;;24.25;40.97
3812;BME280;1921;49.368;11.068;2023-08-08T09:15:52;97612.38;;;24.47;40.20
3812;BME280;1921;49.368;11.068;2023-08-08T09:18:18;97600.38;;;24.54;41.00
3812;BME280;1921;49.368;11.068;2023-08-08T09:20:48;97615.03;;;24.77;39.78
3812;BME280;1921;49.368;11.068;2023-08-08T09:23:15;97607.25;;;25.01;39.64
3812;BME280;1921;49.368;11.068;2023-08-08T09:25:41;97608.78;;;25.33;38.76
3812;BME280;1921;49.368;11.068;2023-08-08T09:28:07;97629.84;;;25.44;40.00
3812;BME280;1921;49.368;11.068;2023-08-08T09:30:33;97642.09;;;25.61;39.55
3812;BME280;1921;49.368;11.068;2023-08-08T09:33:00;97576.09;;;24.71;40.62
3812;BME280;1921;49.368;11.068;2023-08-08T09:35:29;97632.28;;;26.06;39.04
3812;BME280;1921;49.368;11.068;2023-08-08T09:37:55;97605.06;;;25.98;37.93
3812;BME280;1921;49.368;11.068;2023-08-08T09:40:22;97605.38;;;25.02;40.65
3812;BME280;1921;49.368;11.068;2023-08-08T09:42:52;97610.75;;;24.71;40.47
3812;BME280;1921;49.368;11.068;2023-08-08T09:45:19;97637.38;;;24.15;42.21
3812;BME280;1921;49.368;11.068;2023-08-08T09:47:45;97593.88;;;23.74;42.73
3812;BME280;1921;49.368;11.068;2023-08-08T09:50:12;97587.31;;;24.42;41.17
3812;BME280;1921;49.368;11.068;2023-08-08T09:52:38;97596.59;;;25.16;40.90
3812;BME280;1921;49.368;11.068;2023-08-08T09:55:05;97597.69;;;25.70;38.10
3812;BME280;1921;49.368;11.068;2023-08-08T09:57:32;97603.03;;;26.19;36.84
3812;BME280;1921;49.368;11.068;2023-08-08T09:59:58;97626.81;;;26.21;36.47
3812;BME280;1921;49.368;11.068;2023-08-08T10:02:26;97625.03;;;26.11;37.63
3812;BME280;1921;49.368;11.068;2023-08-08T10:04:53;97589.44;;;26.55;37.21
3812;BME280;1921;49.368;11.068;2023-08-08T10:07:19;97581.16;;;27.09;36.26
3812;BME280;1921;49.368;11.068;2023-08-08T10:09:45;97587.03;;;27.35;34.80
3812;BME280;1921;49.368;11.068;2023-08-08T10:12:11;97606.66;;;27.74;34.80
3812;BME280;1921;49.368;11.068;2023-08-08T10:14:41;97580.16;;;27.48;33.29
3812;BME280;1921;49.368;11.068;2023-08-08T10:17:08;97605.63;;;27.70;33.85
3812;BME280;1921;49.368;11.068;2023-08-08T10:19:34;97584.59;;;26.86;33.63
3812;BME280;1921;49.368;11.068;2023-08-08T10:22:10;97559.88;;;26.41;33.98
3812;BME280;1921;49.368;11.068;2023-08-08T10:24:36;97598.50;;;25.70;35.39
3812;BME280;1921;49.368;11.068;2023-08-08T10:27:04;97609.59;;;25.33;36.06
3812;BME280;1921;49.368;11.068;2023-08-08T10:29:33;97554.44;;;24.93;36.27
3812;BME280;1921;49.368;11.068;2023-08-08T10:32:01;97593.63;;;25.03;37.67
3812;BME280;1921;49.368;11.068;2023-08-08T10:37:08;97594.72;;;25.17;37.76
3812;BME280;1921;49.368;11.068;2023-08-08T10:39:34;97590.75;;;25.09;38.58
3812;BME280;1921;49.368;11.068;2023-08-08T10:42:03;97582.41;;;25.21;37.78
3812;BME280;1921;49.368;11.068;2023-08-08T10:44:30;97561.38;;;25.04;38.51
3812;BME280;1921;49.368;11.068;2023-08-08T10:46:57;97554.78;;;25.51;36.92
3812;BME280;1921;49.368;11.068;2023-08-08T10:49:23;97581.97;;;25.73;36.75
3812;BME280;1921;49.368;11.068;2023-08-08T10:51:50;97573.94;;;25.68;37.08
3812;BME280;1921;49.368;11.068;2023-08-08T10:54:24;97548.03;;;25.64;37.39
3812;BME280;1921;49.368;11.068;2023-08-08T10:56:55;97567.03;;;25.57;37.39
3812;BME280;1921;49.368;11.068;2023-08-08T10:59:37;97593.03;;;25.41;38.15
3812;BME280;1921;49.368;11.068;2023-08-08T11:02:04;97535.44;;;25.20;38.42
3812;BME280;1921;49.368;11.068;2023-08-08T11:04:30;97578.38;;;25.88;36.47
3812;BME280;1921;49.368;11.068;2023-08-08T11:06:58;97554.19;;;25.05;36.92
3812;BME280;1921;49.368;11.068;2023-08-08T11:09:25;97595.78;;;25.16;37.56
3812;BME280;1921;49.368;11.068;2023-08-08T11:11:52;97584.25;;;25.31;37.34
3812;BME280;1921;49.368;11.068;2023-08-08T11:14:20;97461.47;;;24.30;36.89
3812;BME280;1921;49.368;11.068;2023-08-08T11:16:48;97597.69;;;24.75;37.53
3812;BME280;1921;49.368;11.068;2023-08-08T11:19:15;97544.63;;;24.22;37.56
3812;BME280;1921;49.368;11.068;2023-08-08T11:21:50;97557.72;;;24.54;38.07
3812;BME280;1921;49.368;11.068;2023-08-08T11:24:16;97552.13;;;24.46;37.37
3812;BME280;1921;49.368;11.068;2023-08-08T11:26:44;97568.63;;;24.68;37.14
3812;BME280;1921;49.368;11.068;2023-08-08T11:29:11;97600.88;;;25.07;35.00
3812;BME280;1921;49.368;11.068;2023-08-08T11:31:37;97463.84;;;24.52;34.95
3812;BME280;1921;49.368;11.068;2023-08-08T11:34:04;97558.66;;;25.14;36.09
3812;BME280;1921;49.368;11.068;2023-08-08T11:36:35;97543.59;;;25.44;35.06
3812;BME280;1921;49.368;11.068;2023-08-08T11:39:03;97541.13;;;25.58;35.70
3812;BME280;1921;49.368;11.068;2023-08-08T11:41:34;97541.22;;;25.92;35.00
3812;BME280;1921;49.368;11.068;2023-08-08T11:44:03;97521.75;;;25.86;34.84
3812;BME280;1921;49.368;11.068;2023-08-08T11:46:29;97541.19;;;25.97;34.39
3812;BME280;1921;49.368;11.068;2023-08-08T11:49:05;97565.09;;;26.17;35.33
3812;BME280;1921;49.368;11.068;2023-08-08T11:51:33;97548.41;;;26.30;34.15
3812;BME280;1921;49.368;11.068;2023-08-08T11:54:03;97533.75;;;26.28;32.85
3812;BME280;1921;49.368;11.068;2023-08-08T11:56:36;97483.16;;;25.58;32.92
3812;BME280;1921;49.368;11.068;2023-08-08T11:59:02;97549.53;;;25.90;33.75
3812;BME280;1921;49.368;11.068;2023-08-08T12:01:30;97552.28;;;25.70;34.37
3812;BME280;1921;49.368;11.068;2023-08-08T12:03:56;97580.38;;;26.12;33.39
3812;BME280;1921;49.368;11.068;2023-08-08T12:06:22;97527.63;;;26.56;33.10
3812;BME280;1921;49.368;11.068;2023-08-08T12:08:48;97470.81;;;26.07;32.82
3812;BME280;1921;49.368;11.068;2023-08-08T12:11:15;97573.75;;;26.72;32.75
3812;BME280;1921;49.368;11.068;2023-08-08T12:13:42;97547.03;;;26.67;32.17
3812;BME280;1921;49.368;11.068;2023-08-08T12:16:10;97520.78;;;26.69;32.73
3812;BME280;1921;49.368;11.068;2023-08-08T12:18:37;97538.19;;;26.72;31.49
3812;BME280;1921;49.368;11.068;2023-08-08T12:21:08;97526.63;;;26.47;32.27
3812;BME280;1921;49.368;11.068;2023-08-08T12:23:36;97523.19;;;26.47;32.66
3812;BME280;1921;49.368;11.068;2023-08-08T12:26:06;97541.59;;;26.77;32.44
3812;BME280;1921;49.368;11.068;2023-08-08T12:28:32;97535.06;;;27.13;33.07
3812;BME280;1921;49.368;11.068;2023-08-08T12:30:59;97502.59;;;27.19;31.01
3812;BME280;1921;49.368;11.068;2023-08-08T12:33:25;97512.56;;;26.66;31.42
3812;BME280;1921;49.368;11.068;2023-08-08T12:35:51;97542.84;;;26.85;31.99
3812;BME280;1921;49.368;11.068;2023-08-08T12:38:18;97560.47;;;27.39;31.16
3812;BME280;1921;49.368;11.068;2023-08-08T12:40:44;97534.13;;;26.74;32.05
3812;BME280;1921;49.368;11.068;2023-08-08T12:43:11;97540.94;;;26.62;32.23
3812;BME280;1921;49.368;11.068;2023-08-08T12:45:46;97557.16;;;26.46;32.36
3812;BME280;1921;49.368;11.068;2023-08-08T12:48:13;97561.09;;;26.15;33.31
3812;BME280;1921;49.368;11.068;2023-08-08T12:50:39;97548.63;;;26.05;32.92
3812;BME280;1921;49.368;11.068;2023-08-08T12:53:06;97541.47;;;26.29;33.49
3812;BME280;1921;49.368;11.068;2023-08-08T12:55:33;97524.06;;;26.32;32.35
3812;BME280;1921;49.368;11.068;2023-08-08T12:57:58;97543.78;;;26.46;33.23
3812;BME280;1921;49.368;11.068;2023-08-08T13:00:24;97526.88;;;25.77;33.35
3812;BME280;1921;49.368;11.068;2023-08-08T13:02:50;97536.22;;;26.14;32.64
3812;BME280;1921;49.368;11.068;2023-08-08T13:05:16;97518.88;;;26.46;31.08
3812;BME280;1921;49.368;11.068;2023-08-08T13:07:42;97540.81;;;26.48;31.66
3812;BME280;1921;49.368;11.068;2023-08-08T13:10:08;97565.22;;;26.36;31.98
3812;BME280;1921;49.368;11.068;2023-08-08T13:12:34;97536.56;;;26.08;32.00